createdAt,value
2023-03-02T00:00:16.700Z,23.97
2023-03-02T00:02:46.683Z,23.17
2023-03-02T00:05:16.149Z,26.85
2023-03-02T00:07:45.893Z,24.17
2023-03-02T00:10:14.594Z,23.27
2023-03-02T00:15:31.104Z,23.43
2023-03-02T00:18:30.090Z,22.80
2023-03-02T00:21:19.958Z,22.77
2023-03-02T00:24:16.697Z,23.03
2023-03-02T00:26:49.226Z,23.70
2023-03-02T00:29:36.543Z,22.20
2023-03-02T00:32:06.688Z,23.50
2023-03-02T00:34:52.735Z,22.50
2023-03-02T00:40:31.999Z,22.67
2023-03-02T00:43:04.145Z,21.70
2023-03-02T00:45:49.249Z,21.43
2023-03-02T00:51:11.408Z,21.43
2023-03-02T00:53:40.641Z,21.13
2023-03-02T00:56:22.847Z,21.70
2023-03-02T00:58:52.685Z,22.50
2023-03-02T01:01:29.938Z,20.60
2023-03-02T01:04:05.865Z,21.47
2023-03-02T01:06:52.523Z,20.97
2023-03-02T01:09:25.306Z,20.53
2023-03-02T01:12:01.014Z,21.97
2023-03-02T01:17:08.813Z,21.67
2023-03-02T01:22:42.336Z,20.80
2023-03-02T01:52:55.971Z,18.50
2023-03-02T01:55:44.793Z,18.97
2023-03-02T01:58:20.018Z,18.40
2023-03-02T02:00:50.206Z,19.17
2023-03-02T02:03:27.073Z,18.73
2023-03-02T02:06:03.736Z,20.13
2023-03-02T02:08:36.684Z,19.20
2023-03-02T02:11:05.521Z,20.40
2023-03-02T02:13:34.286Z,19.87
2023-03-02T02:16:02.593Z,19.87
2023-03-02T02:18:32.578Z,19.60
2023-03-02T02:21:02.025Z,19.67
2023-03-02T02:23:39.788Z,18.77
2023-03-02T02:26:28.399Z,20.07
2023-03-02T02:29:00.631Z,19.77
2023-03-02T02:34:24.067Z,18.83
2023-03-02T02:36:59.525Z,19.37
2023-03-02T02:39:34.032Z,19.10
2023-03-02T02:42:12.850Z,18.97
2023-03-02T02:44:44.749Z,18.37
2023-03-02T02:47:35.453Z,19.17
2023-03-02T02:50:08.783Z,18.37
2023-03-02T02:52:37.198Z,18.23
2023-03-02T02:55:09.960Z,17.47
2023-03-02T02:57:45.795Z,18.07
2023-03-02T03:00:20.090Z,17.47
2023-03-02T03:02:52.893Z,16.70
2023-03-02T03:05:24.193Z,15.97
2023-03-02T03:07:53.488Z,17.40
2023-03-02T03:10:26.151Z,16.80
2023-03-02T03:12:57.398Z,17.90
2023-03-02T03:15:29.779Z,17.07
2023-03-02T03:17:59.168Z,17.53
2023-03-02T03:20:28.577Z,17.47
2023-03-02T03:23:01.629Z,17.87
2023-03-02T03:25:32.044Z,17.70
2023-03-02T03:28:17.627Z,17.57
2023-03-02T03:30:47.364Z,17.10
2023-03-02T03:33:22.321Z,16.23
2023-03-02T03:35:50.405Z,16.97
2023-03-02T03:38:20.231Z,15.87
2023-03-02T03:40:48.315Z,17.10
2023-03-02T03:43:17.774Z,16.67
2023-03-02T03:45:45.787Z,16.50
2023-03-02T03:48:13.930Z,16.23
2023-03-02T03:50:41.980Z,18.30
2023-03-02T03:53:10.016Z,16.30
2023-03-02T03:55:38.035Z,17.83
2023-03-02T03:58:07.380Z,16.83
2023-03-02T04:00:51.615Z,16.47
2023-03-02T04:03:20.799Z,16.17
2023-03-02T04:05:55.511Z,15.67
2023-03-02T04:08:38.697Z,15.73
2023-03-02T04:11:06.598Z,16.37
2023-03-02T04:13:34.488Z,16.77
2023-03-02T04:16:07.476Z,15.80
2023-03-02T04:18:36.489Z,15.77
2023-03-02T04:23:53.436Z,15.50
2023-03-02T04:26:36.078Z,16.37
2023-03-02T04:29:17.768Z,15.23
2023-03-02T04:31:51.150Z,15.43
2023-03-02T04:34:28.090Z,16.17
2023-03-02T04:37:06.326Z,15.47
2023-03-02T04:39:50.232Z,16.03
2023-03-02T04:42:59.277Z,16.03
2023-03-02T04:45:31.143Z,16.73
2023-03-02T04:48:15.362Z,15.40
2023-03-02T04:53:56.369Z,16.23
2023-03-02T04:56:27.786Z,16.47
2023-03-02T04:59:51.472Z,15.83
2023-03-02T05:02:19.493Z,16.90
2023-03-02T05:04:48.907Z,16.57
2023-03-02T05:07:23.045Z,17.03
2023-03-02T05:09:55.073Z,17.80
2023-03-02T05:12:27.696Z,17.53
2023-03-02T05:14:56.297Z,16.90
2023-03-02T05:17:34.287Z,17.20
2023-03-02T05:20:53.281Z,16.77
2023-03-02T05:23:25.658Z,17.20
2023-03-02T05:25:57.621Z,17.07
2023-03-02T05:28:27.182Z,18.07
2023-03-02T05:30:58.255Z,17.37
2023-03-02T05:33:29.774Z,17.83
2023-03-02T05:35:59.532Z,17.43
2023-03-02T05:38:31.829Z,17.63
2023-03-02T05:41:01.888Z,19.50
2023-03-02T05:43:33.197Z,17.67
2023-03-02T05:46:01.281Z,16.40
2023-03-02T05:48:30.406Z,17.57
2023-03-02T05:50:59.097Z,17.10
2023-03-02T05:53:49.509Z,17.03
2023-03-02T05:56:19.679Z,17.73
2023-03-02T05:58:55.966Z,17.33
2023-03-02T06:01:26.618Z,18.47
2023-03-02T06:03:56.985Z,16.93
2023-03-02T06:06:25.859Z,17.33
2023-03-02T06:08:55.273Z,17.97
2023-03-02T06:11:23.415Z,18.00
2023-03-02T06:13:51.577Z,16.47
2023-03-02T06:16:19.601Z,17.13
2023-03-02T06:18:47.808Z,17.33
2023-03-02T06:21:17.415Z,16.37
2023-03-02T06:23:46.696Z,16.63
2023-03-02T06:26:16.038Z,17.13
2023-03-02T06:28:51.988Z,16.67
2023-03-02T06:31:25.815Z,16.50
2023-03-02T06:33:55.477Z,16.27
2023-03-02T06:36:23.594Z,16.40
2023-03-02T06:38:51.972Z,16.10
2023-03-02T06:41:22.480Z,15.73
2023-03-02T06:43:52.752Z,16.27
2023-03-02T06:46:31.270Z,16.03
2023-03-02T06:54:32.885Z,15.13
2023-03-02T06:57:02.332Z,15.50
2023-03-02T06:59:42.545Z,17.43
2023-03-02T07:02:15.547Z,16.73
2023-03-02T07:04:59.477Z,16.37
2023-03-02T07:07:33.970Z,15.27
2023-03-02T07:10:04.089Z,15.97
2023-03-02T07:12:33.726Z,15.33
2023-03-02T07:15:01.841Z,16.40
2023-03-02T07:17:36.477Z,16.33
2023-03-02T07:20:05.814Z,17.17
2023-03-02T07:22:33.934Z,15.63
2023-03-02T07:25:01.977Z,16.60
2023-03-02T07:27:30.155Z,15.53
2023-03-02T07:29:59.498Z,16.13
2023-03-02T07:32:29.499Z,15.07
2023-03-02T07:34:57.592Z,15.27
2023-03-02T07:37:25.935Z,14.33
2023-03-02T07:39:54.878Z,15.53
2023-03-02T07:42:23.092Z,14.93
2023-03-02T07:44:53.399Z,15.30
2023-03-02T07:47:22.749Z,15.07
2023-03-02T07:49:53.445Z,14.43
2023-03-02T07:52:26.366Z,14.17
2023-03-02T07:54:54.512Z,13.90
2023-03-02T07:57:23.194Z,14.73
2023-03-02T07:59:51.322Z,14.93
2023-03-02T08:02:21.535Z,14.97
2023-03-02T08:04:56.813Z,14.87
2023-03-02T08:07:24.792Z,14.90
2023-03-02T08:09:52.821Z,15.60
2023-03-02T08:12:22.953Z,15.20
2023-03-02T08:14:51.196Z,15.53
2023-03-02T08:17:19.420Z,16.27
2023-03-02T08:19:47.660Z,16.53
2023-03-02T08:22:17.139Z,16.47
2023-03-02T08:24:45.074Z,17.70
2023-03-02T08:27:15.194Z,16.17
2023-03-02T08:29:43.573Z,17.13
2023-03-02T08:32:11.867Z,17.50
2023-03-02T08:34:39.910Z,17.50
2023-03-02T08:37:07.941Z,17.27
2023-03-02T08:39:37.393Z,17.17
2023-03-02T08:42:05.453Z,17.40
2023-03-02T08:44:33.871Z,16.67
2023-03-02T08:47:01.884Z,17.10
2023-03-02T08:49:30.003Z,17.47
2023-03-02T08:52:00.661Z,16.83
2023-03-02T08:54:28.614Z,17.13
2023-03-02T08:56:57.985Z,16.80
2023-03-02T08:59:25.911Z,16.03
2023-03-02T09:01:54.111Z,17.13
2023-03-02T09:04:22.107Z,17.23
2023-03-02T09:06:50.104Z,17.43
2023-03-02T09:09:18.110Z,15.97
2023-03-02T09:11:46.524Z,16.97
2023-03-02T09:14:16.310Z,17.07
2023-03-02T09:16:45.374Z,16.13
2023-03-02T09:19:15.101Z,17.23
2023-03-02T09:21:43.082Z,16.57
2023-03-02T09:24:11.110Z,15.63
2023-03-02T09:26:39.348Z,16.17
2023-03-02T09:29:07.888Z,15.50
2023-03-02T09:31:38.361Z,15.67
2023-03-02T09:34:07.239Z,15.77
2023-03-02T09:36:35.317Z,16.40
2023-03-02T09:39:08.486Z,16.30
2023-03-02T09:42:22.888Z,15.37
2023-03-02T09:45:35.795Z,15.40
2023-03-02T09:48:15.871Z,15.27
2023-03-02T09:50:56.474Z,16.90
2023-03-02T09:53:40.620Z,15.10
2023-03-02T09:56:16.678Z,15.33
2023-03-02T09:58:50.580Z,14.83
2023-03-02T10:01:35.512Z,15.87
2023-03-02T10:04:18.963Z,15.03
2023-03-02T10:06:47.676Z,15.27
2023-03-02T10:09:16.053Z,16.00
2023-03-02T10:11:57.957Z,15.47
2023-03-02T10:14:31.724Z,14.33
2023-03-02T10:17:16.385Z,14.50
2023-03-02T10:19:53.133Z,15.07
2023-03-02T10:22:28.746Z,14.97
2023-03-02T10:25:08.016Z,14.37
2023-03-02T10:27:40.752Z,14.10
2023-03-02T10:30:18.388Z,14.63
2023-03-02T10:32:51.376Z,15.57
2023-03-02T10:35:30.671Z,16.83
2023-03-02T10:38:06.958Z,16.17
2023-03-02T10:40:46.340Z,16.27
2023-03-02T10:58:04.425Z,15.87
2023-03-02T11:03:26.178Z,15.33
2023-03-02T11:06:01.199Z,14.47
2023-03-02T11:12:02.956Z,14.60
2023-03-02T11:14:34.390Z,14.47
2023-03-02T11:25:04.266Z,14.27
2023-03-02T11:27:37.703Z,14.80
2023-03-02T11:32:52.551Z,14.27
2023-03-02T11:35:31.982Z,15.47
2023-03-02T11:38:12.839Z,14.73
2023-03-02T11:40:48.904Z,13.83
2023-03-02T11:43:18.048Z,13.70
2023-03-02T11:45:54.830Z,13.50
2023-03-02T11:48:30.396Z,13.77
2023-03-02T11:51:01.277Z,14.53
2023-03-02T11:53:40.364Z,13.17
2023-03-02T11:56:08.646Z,14.00
2023-03-02T11:58:38.198Z,13.37
2023-03-02T12:01:10.940Z,12.93
2023-03-02T12:03:44.976Z,12.87
2023-03-02T12:06:35.639Z,13.03
2023-03-02T12:09:26.451Z,13.00
2023-03-02T12:11:57.206Z,13.47
2023-03-02T12:14:38.681Z,13.27
2023-03-02T12:17:18.582Z,13.13
2023-03-02T12:19:49.037Z,14.07
2023-03-02T12:22:28.110Z,12.50
2023-03-02T12:25:05.408Z,13.00
2023-03-02T12:27:41.706Z,12.63
2023-03-02T12:30:26.144Z,13.07
2023-03-02T12:33:15.468Z,13.47
2023-03-02T12:35:45.568Z,12.40
2023-03-02T12:38:30.948Z,12.53
2023-03-02T12:41:15.064Z,10.90
2023-03-02T12:43:47.968Z,11.37
2023-03-02T12:46:28.841Z,10.93
2023-03-02T12:49:27.202Z,11.07
2023-03-02T12:51:58.117Z,11.37
2023-03-02T12:54:28.330Z,12.17
2023-03-02T12:57:08.996Z,11.27
2023-03-02T12:59:37.794Z,10.97
2023-03-02T13:02:13.971Z,11.30
2023-03-02T13:04:42.066Z,11.67
2023-03-02T13:07:19.769Z,11.33
2023-03-02T13:09:56.686Z,11.33
2023-03-02T13:12:27.806Z,11.10
2023-03-02T13:14:57.963Z,10.53
2023-03-02T13:17:30.837Z,9.83
2023-03-02T13:20:00.778Z,9.43
2023-03-02T13:22:30.922Z,10.10
2023-03-02T13:25:02.124Z,13.53
2023-03-02T13:27:30.898Z,14.00
2023-03-02T13:30:11.076Z,12.43
2023-03-02T13:32:43.095Z,13.47
2023-03-02T13:35:19.322Z,12.57
2023-03-02T13:37:48.703Z,13.27
2023-03-02T13:40:38.408Z,14.40
2023-03-02T13:43:20.155Z,15.23
2023-03-02T13:45:54.330Z,14.97
2023-03-02T13:48:22.683Z,14.67
2023-03-02T13:50:57.075Z,15.10
2023-03-02T13:53:27.283Z,15.50
2023-03-02T13:55:55.828Z,15.53
2023-03-02T13:58:25.242Z,15.13
2023-03-02T14:00:53.670Z,15.00
2023-03-02T14:03:27.919Z,15.63
2023-03-02T14:05:56.950Z,14.53
2023-03-02T14:08:26.556Z,16.10
2023-03-02T14:10:57.864Z,16.30
2023-03-02T14:13:29.777Z,15.60
2023-03-02T14:15:58.253Z,15.13
2023-03-02T14:18:33.823Z,14.93
2023-03-02T14:21:01.835Z,14.53
2023-03-02T14:23:31.392Z,14.80
2023-03-02T14:25:59.415Z,15.87
2023-03-02T14:28:31.442Z,14.93
2023-03-02T14:31:00.213Z,15.33
2023-03-02T14:33:28.197Z,15.10
2023-03-02T14:35:59.259Z,15.80
2023-03-02T14:38:30.190Z,14.53
2023-03-02T14:41:03.530Z,14.53
2023-03-02T14:43:33.916Z,15.07
2023-03-02T14:46:07.096Z,14.67
2023-03-02T14:48:38.186Z,15.73
2023-03-02T14:51:20.185Z,13.47
2023-03-02T14:53:52.069Z,14.50
2023-03-02T14:56:26.209Z,14.33
2023-03-02T14:58:55.115Z,14.67
2023-03-02T15:01:24.567Z,14.77
2023-03-02T15:04:00.568Z,13.60
2023-03-02T15:06:32.162Z,14.13
2023-03-02T15:09:02.426Z,14.00
2023-03-02T15:11:34.287Z,13.47
2023-03-02T15:14:03.104Z,14.40
2023-03-02T15:16:32.481Z,13.37
2023-03-02T15:19:00.847Z,14.27
2023-03-02T15:21:31.252Z,13.30
2023-03-02T15:23:59.359Z,12.90
2023-03-02T15:26:34.434Z,13.00
2023-03-02T15:29:03.771Z,13.03
2023-03-02T15:31:35.798Z,13.03
2023-03-02T15:34:05.318Z,12.53
2023-03-02T15:36:34.372Z,12.40
2023-03-02T15:39:02.439Z,12.00
2023-03-02T15:41:32.837Z,12.30
2023-03-02T15:44:04.022Z,11.93
2023-03-02T15:46:31.933Z,12.07
2023-03-02T15:49:00.537Z,11.90
2023-03-02T15:51:29.771Z,10.50
2023-03-02T15:54:01.350Z,10.50
2023-03-02T15:56:38.841Z,11.13
2023-03-02T15:59:15.612Z,10.83
2023-03-02T16:01:43.558Z,10.50
2023-03-02T16:04:11.566Z,10.03
2023-03-02T16:06:39.678Z,10.93
2023-03-02T16:09:07.749Z,11.33
2023-03-02T16:11:35.963Z,11.07
2023-03-02T16:14:03.945Z,10.87
2023-03-02T16:16:33.340Z,10.73
2023-03-02T16:19:01.328Z,10.40
2023-03-02T16:21:29.697Z,10.13
2023-03-02T16:24:03.202Z,10.07
2023-03-02T16:26:32.365Z,9.67
2023-03-02T16:29:00.799Z,9.90
2023-03-02T16:31:32.330Z,9.77
2023-03-02T16:34:06.984Z,9.87
2023-03-02T16:36:35.228Z,9.93
2023-03-02T16:39:03.627Z,9.33
2023-03-02T16:41:31.684Z,9.37
2023-03-02T16:44:00.421Z,9.43
2023-03-02T16:46:30.321Z,8.40
2023-03-02T16:48:59.092Z,8.80
2023-03-02T16:51:28.473Z,8.40
2023-03-02T16:53:56.455Z,7.77
2023-03-02T16:56:24.502Z,8.93
2023-03-02T16:58:52.489Z,8.63
2023-03-02T17:01:24.184Z,8.97
2023-03-02T17:03:52.671Z,9.20
2023-03-02T17:06:24.286Z,10.23
2023-03-02T17:08:53.742Z,10.70
2023-03-02T17:11:22.138Z,9.50
2023-03-02T17:13:50.179Z,10.40
2023-03-02T17:16:19.186Z,10.77
2023-03-02T17:18:47.698Z,9.73
2023-03-02T17:21:16.172Z,10.53
2023-03-02T17:23:44.627Z,11.23
2023-03-02T17:26:13.941Z,11.03
2023-03-02T17:28:42.076Z,11.50
2023-03-02T17:31:10.161Z,11.23
2023-03-02T17:33:39.148Z,11.13
2023-03-02T17:36:11.825Z,11.53
2023-03-02T17:38:41.474Z,11.03
2023-03-02T17:41:11.076Z,10.70
2023-03-02T17:43:42.057Z,10.87
2023-03-02T17:46:11.893Z,10.47
2023-03-02T17:48:40.202Z,11.00
2023-03-02T17:51:08.240Z,10.47
2023-03-02T17:53:36.251Z,10.43
2023-03-02T17:56:04.267Z,9.17
2023-03-02T17:58:44.200Z,10.00
2023-03-02T18:01:15.905Z,8.73
2023-03-02T18:03:45.603Z,10.13
2023-03-02T18:06:14.468Z,9.90
2023-03-02T18:08:42.690Z,9.53
2023-03-02T18:11:11.104Z,9.97
2023-03-02T18:13:40.271Z,9.60
2023-03-02T18:16:09.559Z,9.27
2023-03-02T18:18:39.607Z,9.20
2023-03-02T18:21:08.950Z,8.97
2023-03-02T18:23:38.765Z,8.63
2023-03-02T18:26:08.136Z,8.57
2023-03-02T18:28:39.537Z,8.93
2023-03-02T18:36:35.321Z,8.47
2023-03-02T18:39:04.653Z,9.33
2023-03-02T18:41:38.087Z,8.57
2023-03-02T18:44:06.370Z,8.77
2023-03-02T18:46:34.753Z,9.43
2023-03-02T18:49:04.367Z,9.10
2023-03-02T18:51:33.706Z,9.33
2023-03-02T18:54:01.700Z,9.30
2023-03-02T18:56:29.660Z,9.00
2023-03-02T18:58:57.584Z,10.07
2023-03-02T19:01:25.571Z,10.00
2023-03-02T19:03:56.862Z,9.37
2023-03-02T19:06:25.618Z,9.10
2023-03-02T19:08:55.006Z,10.27
2023-03-02T19:11:22.928Z,9.77
2023-03-02T19:13:51.044Z,10.17
2023-03-02T19:16:19.220Z,10.37
2023-03-02T19:18:48.567Z,10.47
2023-03-02T19:21:19.049Z,10.73
2023-03-02T19:23:47.565Z,11.37
2023-03-02T19:26:16.892Z,10.50
2023-03-02T19:28:44.979Z,10.60
2023-03-02T19:31:13.737Z,10.93
2023-03-02T19:33:42.686Z,9.87
2023-03-02T19:36:35.369Z,9.83
2023-03-02T19:39:03.362Z,9.90
2023-03-02T19:41:46.282Z,9.77
2023-03-02T19:44:16.810Z,9.77
2023-03-02T19:46:44.774Z,8.93
2023-03-02T19:49:12.710Z,9.30
2023-03-02T19:51:40.744Z,9.37
2023-03-02T19:54:10.179Z,9.20
2023-03-02T19:56:43.053Z,9.77
2023-03-02T19:59:11.382Z,8.70
2023-03-02T20:01:39.451Z,8.50
2023-03-02T20:04:07.446Z,8.80
2023-03-02T20:06:37.054Z,7.43
2023-03-02T20:09:09.623Z,8.07
2023-03-02T20:11:39.234Z,8.33
2023-03-02T20:14:07.238Z,7.83
2023-03-02T20:16:38.479Z,7.77
2023-03-02T20:19:06.839Z,6.97
2023-03-02T20:21:37.878Z,6.77
2023-03-02T20:24:06.426Z,7.10
2023-03-02T20:26:34.936Z,6.93
2023-03-02T20:29:05.624Z,7.20
2023-03-02T20:31:35.189Z,7.23
2023-03-02T20:34:07.532Z,6.77
2023-03-02T20:36:44.015Z,6.57
2023-03-02T20:39:19.660Z,6.27
2023-03-02T20:41:48.793Z,7.53
2023-03-02T20:44:23.656Z,6.60
2023-03-02T20:46:54.900Z,5.93
2023-03-02T20:49:28.246Z,6.03
2023-03-02T20:51:58.041Z,6.50
2023-03-02T20:54:29.015Z,5.90
2023-03-02T20:57:05.376Z,5.73
2023-03-02T20:59:35.234Z,5.57
2023-03-02T21:02:04.013Z,5.30
2023-03-02T21:04:35.829Z,5.23
2023-03-02T21:07:12.096Z,4.93
2023-03-02T21:09:41.820Z,5.30
2023-03-02T21:12:13.894Z,5.20
2023-03-02T21:17:28.811Z,4.97
2023-03-02T21:20:08.965Z,4.60
2023-03-02T21:22:38.142Z,4.47
2023-03-02T21:25:16.936Z,4.87
2023-03-02T21:27:45.665Z,5.10
2023-03-02T21:30:21.573Z,4.93
2023-03-02T21:32:51.289Z,4.80
2023-03-02T21:35:23.952Z,4.40
2023-03-02T21:37:55.925Z,4.47
2023-03-02T21:40:26.372Z,4.50
2023-03-02T21:42:56.934Z,5.20
2023-03-02T21:45:26.864Z,4.50
2023-03-02T21:47:55.403Z,4.47
2023-03-02T21:50:27.526Z,5.23
2023-03-02T21:52:59.222Z,4.57
2023-03-02T21:55:29.265Z,4.47
2023-03-02T21:58:02.537Z,4.90
2023-03-02T22:00:33.908Z,5.17
2023-03-02T22:03:04.560Z,5.57
2023-03-02T22:05:35.863Z,5.40
2023-03-02T22:08:04.912Z,5.37
2023-03-02T22:10:35.852Z,5.13
2023-03-02T22:13:17.388Z,5.80
2023-03-02T22:15:50.756Z,5.77
2023-03-02T22:18:20.759Z,5.60
2023-03-02T22:20:52.792Z,6.23
2023-03-02T22:23:22.466Z,6.13
2023-03-02T22:25:55.649Z,6.63
2023-03-02T22:28:27.101Z,6.20
2023-03-02T22:31:00.936Z,6.27
2023-03-02T22:33:30.515Z,6.57
2023-03-02T22:36:03.072Z,5.87
2023-03-02T22:38:32.175Z,6.27
2023-03-02T22:41:00.105Z,6.70
2023-03-02T22:43:30.790Z,6.83
2023-03-02T22:46:15.740Z,7.00
2023-03-02T22:48:47.757Z,6.77
2023-03-02T22:51:19.820Z,7.30
2023-03-02T22:54:02.258Z,7.43
2023-03-02T22:56:40.660Z,7.60
2023-03-02T22:59:21.945Z,7.73
2023-03-02T23:01:52.017Z,7.17
2023-03-02T23:04:23.309Z,7.43
2023-03-02T23:07:00.109Z,7.40
2023-03-02T23:09:36.964Z,7.07
2023-03-02T23:12:26.706Z,7.87
2023-03-02T23:14:57.735Z,7.13
2023-03-02T23:17:37.697Z,7.10
2023-03-02T23:20:09.050Z,7.27
2023-03-02T23:22:39.926Z,7.87
2023-03-02T23:25:10.141Z,7.70
2023-03-02T23:27:40.876Z,7.40
2023-03-02T23:30:13.445Z,7.47
2023-03-02T23:32:42.867Z,8.17
2023-03-02T23:35:11.267Z,8.40
2023-03-02T23:37:39.178Z,8.03
2023-03-02T23:40:10.816Z,7.93
2023-03-02T23:42:38.774Z,8.00
2023-03-02T23:45:08.281Z,7.77
2023-03-02T23:47:36.242Z,8.40
2023-03-02T23:50:06.542Z,7.80
2023-03-02T23:52:34.499Z,8.17
2023-03-02T23:55:02.456Z,7.50
2023-03-02T23:57:32.756Z,7.67
